sensor_id;sensor_type;location;lat;lon;timestamp;P1;durP1;ratioP1;P2;durP2;ratioP2
2039;SDS011;1025;42.686;23.350;2023-04-25T00:00:19;3.77;;;3.50;;
2039;SDS011;1025;42.686;23.350;2023-04-25T00:03:44;4.20;;;3.90;;
2039;SDS011;1025;42.686;23.350;2023-04-25T00:07:10;4.10;;;3.70;;
2039;SDS011;1025;42.686;23.350;2023-04-25T00:10:35;5.00;;;4.60;;
2039;SDS011;1025;42.686;23.350;2023-04-25T00:14:02;3.90;;;3.70;;
2039;SDS011;1025;42.686;23.350;2023-04-25T00:17:28;4.10;;;3.90;;
2039;SDS011;1025;42.686;23.350;2023-04-25T00:20:54;5.13;;;4.73;;
2039;SDS011;1025;42.686;23.350;2023-04-25T00:24:20;4.90;;;4.50;;
2039;SDS011;1025;42.686;23.350;2023-04-25T00:27:45;5.03;;;4.60;;
2039;SDS011;1025;42.686;23.350;2023-04-25T00:31:11;5.83;;;5.40;;
2039;SDS011;1025;42.686;23.350;2023-04-25T00:34:37;7.37;;;5.63;;
2039;SDS011;1025;42.686;23.350;2023-04-25T00:38:03;5.53;;;5.13;;
2039;SDS011;1025;42.686;23.350;2023-04-25T00:41:29;6.07;;;5.50;;
2039;SDS011;1025;42.686;23.350;2023-04-25T00:44:55;5.67;;;5.17;;
2039;SDS011;1025;42.686;23.350;2023-04-25T00:48:22;5.00;;;4.60;;
2039;SDS011;1025;42.686;23.350;2023-04-25T00:51:46;5.30;;;4.90;;
2039;SDS011;1025;42.686;23.350;2023-04-25T00:55:12;5.43;;;5.03;;
2039;SDS011;1025;42.686;23.350;2023-04-25T00:58:37;6.87;;;4.47;;
2039;SDS011;1025;42.686;23.350;2023-04-25T01:02:03;4.37;;;4.10;;
2039;SDS011;1025;42.686;23.350;2023-04-25T01:05:27;4.67;;;4.27;;
2039;SDS011;1025;42.686;23.350;2023-04-25T01:08:55;5.50;;;5.10;;
2039;SDS011;1025;42.686;23.350;2023-04-25T01:12:20;6.30;;;5.80;;
2039;SDS011;1025;42.686;23.350;2023-04-25T01:15:45;5.73;;;5.27;;
2039;SDS011;1025;42.686;23.350;2023-04-25T01:19:11;5.10;;;4.70;;
2039;SDS011;1025;42.686;23.350;2023-04-25T01:22:31;5.87;;;5.37;;
2039;SDS011;1025;42.686;23.350;2023-04-25T01:25:58;5.20;;;4.80;;
2039;SDS011;1025;42.686;23.350;2023-04-25T01:29:25;5.20;;;4.90;;
2039;SDS011;1025;42.686;23.350;2023-04-25T01:32:52;5.10;;;4.70;;
2039;SDS011;1025;42.686;23.350;2023-04-25T01:36:18;5.70;;;5.20;;
2039;SDS011;1025;42.686;23.350;2023-04-25T01:39:45;5.33;;;4.57;;
2039;SDS011;1025;42.686;23.350;2023-04-25T01:43:11;5.20;;;4.73;;
2039;SDS011;1025;42.686;23.350;2023-04-25T01:46:37;5.70;;;5.10;;
2039;SDS011;1025;42.686;23.350;2023-04-25T01:50:00;6.03;;;5.53;;
2039;SDS011;1025;42.686;23.350;2023-04-25T01:53:23;6.80;;;6.30;;
2039;SDS011;1025;42.686;23.350;2023-04-25T01:56:51;7.63;;;6.93;;
2039;SDS011;1025;42.686;23.350;2023-04-25T02:00:16;6.00;;;5.50;;
2039;SDS011;1025;42.686;23.350;2023-04-25T02:03:42;5.17;;;4.77;;
2039;SDS011;1025;42.686;23.350;2023-04-25T02:07:07;6.17;;;5.77;;
2039;SDS011;1025;42.686;23.350;2023-04-25T02:10:34;4.67;;;4.33;;
2039;SDS011;1025;42.686;23.350;2023-04-25T02:13:41;6.50;;;6.00;;
2039;SDS011;1025;42.686;23.350;2023-04-25T02:17:06;6.60;;;6.00;;
2039;SDS011;1025;42.686;23.350;2023-04-25T02:20:32;6.73;;;6.03;;
2039;SDS011;1025;42.686;23.350;2023-04-25T02:24:00;6.03;;;5.43;;
2039;SDS011;1025;42.686;23.350;2023-04-25T02:27:26;7.60;;;6.57;;
2039;SDS011;1025;42.686;23.350;2023-04-25T02:30:44;6.73;;;6.07;;
2039;SDS011;1025;42.686;23.350;2023-04-25T02:34:08;6.60;;;6.00;;
2039;SDS011;1025;42.686;23.350;2023-04-25T02:37:34;8.20;;;7.17;;
2039;SDS011;1025;42.686;23.350;2023-04-25T02:41:00;8.23;;;7.20;;
2039;SDS011;1025;42.686;23.350;2023-04-25T02:44:26;6.60;;;6.03;;
2039;SDS011;1025;42.686;23.350;2023-04-25T02:47:52;7.60;;;7.00;;
2039;SDS011;1025;42.686;23.350;2023-04-25T02:51:18;9.27;;;8.47;;
2039;SDS011;1025;42.686;23.350;2023-04-25T02:54:43;5.97;;;5.40;;
2039;SDS011;1025;42.686;23.350;2023-04-25T02:58:04;6.57;;;6.00;;
2039;SDS011;1025;42.686;23.350;2023-04-25T03:01:02;7.90;;;7.10;;
2039;SDS011;1025;42.686;23.350;2023-04-25T03:04:29;6.43;;;5.93;;
2039;SDS011;1025;42.686;23.350;2023-04-25T03:07:42;6.90;;;6.10;;
2039;SDS011;1025;42.686;23.350;2023-04-25T03:11:08;9.80;;;7.60;;
2039;SDS011;1025;42.686;23.350;2023-04-25T03:14:23;7.63;;;7.03;;
2039;SDS011;1025;42.686;23.350;2023-04-25T03:17:11;8.47;;;7.47;;
2039;SDS011;1025;42.686;23.350;2023-04-25T03:19:57;7.27;;;6.60;;
2039;SDS011;1025;42.686;23.350;2023-04-25T03:22:37;7.73;;;7.03;;
2039;SDS011;1025;42.686;23.350;2023-04-25T03:26:02;8.97;;;8.07;;
2039;SDS011;1025;42.686;23.350;2023-04-25T03:29:28;9.10;;;8.20;;
2039;SDS011;1025;42.686;23.350;2023-04-25T03:32:53;8.73;;;7.83;;
2039;SDS011;1025;42.686;23.350;2023-04-25T03:36:20;9.50;;;7.43;;
2039;SDS011;1025;42.686;23.350;2023-04-25T03:39:45;7.63;;;7.00;;
2039;SDS011;1025;42.686;23.350;2023-04-25T03:43:10;7.33;;;6.53;;
2039;SDS011;1025;42.686;23.350;2023-04-25T03:46:36;7.90;;;7.20;;
2039;SDS011;1025;42.686;23.350;2023-04-25T03:49:56;10.73;;;9.00;;
2039;SDS011;1025;42.686;23.350;2023-04-25T03:53:23;9.93;;;8.93;;
2039;SDS011;1025;42.686;23.350;2023-04-25T03:56:26;7.47;;;6.90;;
2039;SDS011;1025;42.686;23.350;2023-04-25T03:59:50;8.30;;;7.60;;
2039;SDS011;1025;42.686;23.350;2023-04-25T04:03:15;7.60;;;7.00;;
2039;SDS011;1025;42.686;23.350;2023-04-25T04:06:33;7.30;;;6.60;;
2039;SDS011;1025;42.686;23.350;2023-04-25T04:09:55;8.17;;;7.40;;
2039;SDS011;1025;42.686;23.350;2023-04-25T04:13:21;8.90;;;8.10;;
2039;SDS011;1025;42.686;23.350;2023-04-25T04:16:46;10.00;;;9.17;;
2039;SDS011;1025;42.686;23.350;2023-04-25T04:20:12;9.20;;;8.50;;
2039;SDS011;1025;42.686;23.350;2023-04-25T04:23:37;9.87;;;8.97;;
2039;SDS011;1025;42.686;23.350;2023-04-25T04:27:03;7.57;;;6.97;;
2039;SDS011;1025;42.686;23.350;2023-04-25T04:30:28;9.33;;;8.53;;
2039;SDS011;1025;42.686;23.350;2023-04-25T04:33:55;7.70;;;7.10;;
2039;SDS011;1025;42.686;23.350;2023-04-25T04:37:24;9.25;;;8.45;;
2039;SDS011;1025;42.686;23.350;2023-04-25T04:40:50;8.10;;;7.30;;
2039;SDS011;1025;42.686;23.350;2023-04-25T04:44:17;8.13;;;7.40;;
2039;SDS011;1025;42.686;23.350;2023-04-25T04:47:43;9.73;;;8.83;;
2039;SDS011;1025;42.686;23.350;2023-04-25T04:51:07;9.40;;;8.50;;
2039;SDS011;1025;42.686;23.350;2023-04-25T04:54:33;11.33;;;10.30;;
2039;SDS011;1025;42.686;23.350;2023-04-25T04:57:58;9.10;;;8.20;;
2039;SDS011;1025;42.686;23.350;2023-04-25T05:01:25;8.97;;;8.00;;
2039;SDS011;1025;42.686;23.350;2023-04-25T05:04:51;9.57;;;8.50;;
2039;SDS011;1025;42.686;23.350;2023-04-25T05:08:16;11.10;;;10.03;;
2039;SDS011;1025;42.686;23.350;2023-04-25T05:11:41;13.20;;;10.23;;
2039;SDS011;1025;42.686;23.350;2023-04-25T05:15:07;13.60;;;10.97;;
2039;SDS011;1025;42.686;23.350;2023-04-25T05:18:33;12.60;;;11.40;;
2039;SDS011;1025;42.686;23.350;2023-04-25T05:21:59;12.17;;;11.07;;
2039;SDS011;1025;42.686;23.350;2023-04-25T05:25:25;10.87;;;9.97;;
2039;SDS011;1025;42.686;23.350;2023-04-25T05:28:50;12.83;;;11.67;;
2039;SDS011;1025;42.686;23.350;2023-04-25T05:32:16;11.40;;;10.33;;
2039;SDS011;1025;42.686;23.350;2023-04-25T05:35:41;13.03;;;11.47;;
2039;SDS011;1025;42.686;23.350;2023-04-25T05:39:06;12.10;;;10.20;;
2039;SDS011;1025;42.686;23.350;2023-04-25T05:42:32;8.90;;;8.20;;
2039;SDS011;1025;42.686;23.350;2023-04-25T05:45:58;8.73;;;7.63;;
2039;SDS011;1025;42.686;23.350;2023-04-25T05:49:23;9.83;;;7.00;;
2039;SDS011;1025;42.686;23.350;2023-04-25T05:52:49;7.40;;;5.70;;
2039;SDS011;1025;42.686;23.350;2023-04-25T05:56:15;6.73;;;6.23;;
2039;SDS011;1025;42.686;23.350;2023-04-25T05:59:45;7.97;;;7.27;;
2039;SDS011;1025;42.686;23.350;2023-04-25T06:03:11;5.70;;;5.40;;
2039;SDS011;1025;42.686;23.350;2023-04-25T06:06:30;7.23;;;6.57;;
2039;SDS011;1025;42.686;23.350;2023-04-25T06:09:03;8.03;;;7.23;;
2039;SDS011;1025;42.686;23.350;2023-04-25T06:12:31;5.73;;;5.03;;
2039;SDS011;1025;42.686;23.350;2023-04-25T06:15:56;9.10;;;5.90;;
2039;SDS011;1025;42.686;23.350;2023-04-25T06:19:22;5.43;;;5.03;;
2039;SDS011;1025;42.686;23.350;2023-04-25T06:22:49;10.23;;;6.50;;
2039;SDS011;1025;42.686;23.350;2023-04-25T06:26:07;5.93;;;5.30;;
2039;SDS011;1025;42.686;23.350;2023-04-25T06:29:33;16.27;;;8.90;;
2039;SDS011;1025;42.686;23.350;2023-04-25T06:32:58;14.60;;;8.00;;
2039;SDS011;1025;42.686;23.350;2023-04-25T06:36:14;17.93;;;8.00;;
2039;SDS011;1025;42.686;23.350;2023-04-25T06:39:40;9.33;;;6.37;;
2039;SDS011;1025;42.686;23.350;2023-04-25T06:43:06;14.40;;;8.70;;
2039;SDS011;1025;42.686;23.350;2023-04-25T06:46:32;11.50;;;7.07;;
2039;SDS011;1025;42.686;23.350;2023-04-25T06:49:57;30.13;;;10.20;;
2039;SDS011;1025;42.686;23.350;2023-04-25T06:53:22;39.83;;;11.30;;
2039;SDS011;1025;42.686;23.350;2023-04-25T06:56:47;9.63;;;7.17;;
2039;SDS011;1025;42.686;23.350;2023-04-25T07:00:08;29.80;;;8.80;;
2039;SDS011;1025;42.686;23.350;2023-04-25T07:03:27;15.73;;;7.70;;
2039;SDS011;1025;42.686;23.350;2023-04-25T07:06:53;6.57;;;5.97;;
2039;SDS011;1025;42.686;23.350;2023-04-25T07:09:26;11.53;;;6.73;;
2039;SDS011;1025;42.686;23.350;2023-04-25T07:12:44;13.93;;;7.33;;
2039;SDS011;1025;42.686;23.350;2023-04-25T07:16:11;7.37;;;6.63;;
2039;SDS011;1025;42.686;23.350;2023-04-25T07:19:36;29.00;;;10.80;;
2039;SDS011;1025;42.686;23.350;2023-04-25T07:23:01;34.97;;;11.13;;
2039;SDS011;1025;42.686;23.350;2023-04-25T07:26:27;20.00;;;8.40;;
2039;SDS011;1025;42.686;23.350;2023-04-25T07:29:29;10.73;;;7.37;;
2039;SDS011;1025;42.686;23.350;2023-04-25T07:32:55;9.97;;;6.40;;
2039;SDS011;1025;42.686;23.350;2023-04-25T07:36:13;8.23;;;7.27;;
2039;SDS011;1025;42.686;23.350;2023-04-25T07:39:36;10.00;;;6.07;;
2039;SDS011;1025;42.686;23.350;2023-04-25T07:43:00;14.87;;;6.40;;
2039;SDS011;1025;42.686;23.350;2023-04-25T07:46:26;11.20;;;6.33;;
2039;SDS011;1025;42.686;23.350;2023-04-25T07:49:34;12.33;;;7.70;;
2039;SDS011;1025;42.686;23.350;2023-04-25T07:52:59;8.70;;;5.80;;
2039;SDS011;1025;42.686;23.350;2023-04-25T07:56:18;10.83;;;8.73;;
2039;SDS011;1025;42.686;23.350;2023-04-25T07:59:44;7.80;;;6.97;;
2039;SDS011;1025;42.686;23.350;2023-04-25T08:03:09;25.13;;;9.50;;
2039;SDS011;1025;42.686;23.350;2023-04-25T08:06:36;8.03;;;5.63;;
2039;SDS011;1025;42.686;23.350;2023-04-25T08:09:57;7.43;;;6.00;;
2039;SDS011;1025;42.686;23.350;2023-04-25T08:13:22;10.60;;;7.00;;
2039;SDS011;1025;42.686;23.350;2023-04-25T08:16:47;6.83;;;5.47;;
2039;SDS011;1025;42.686;23.350;2023-04-25T08:19:50;5.43;;;5.00;;
2039;SDS011;1025;42.686;23.350;2023-04-25T08:23:16;6.00;;;5.50;;
2039;SDS011;1025;42.686;23.350;2023-04-25T08:26:22;5.83;;;4.33;;
2039;SDS011;1025;42.686;23.350;2023-04-25T08:28:51;7.03;;;5.00;;
2039;SDS011;1025;42.686;23.350;2023-04-25T08:31:19;8.13;;;5.27;;
2039;SDS011;1025;42.686;23.350;2023-04-25T08:33:53;5.97;;;4.10;;
2039;SDS011;1025;42.686;23.350;2023-04-25T08:37:07;3.77;;;3.47;;
2039;SDS011;1025;42.686;23.350;2023-04-25T08:40:06;4.40;;;4.00;;
2039;SDS011;1025;42.686;23.350;2023-04-25T08:43:04;4.73;;;4.30;;
2039;SDS011;1025;42.686;23.350;2023-04-25T08:45:56;8.80;;;5.10;;
2039;SDS011;1025;42.686;23.350;2023-04-25T08:49:18;9.43;;;8.43;;
2039;SDS011;1025;42.686;23.350;2023-04-25T08:51:59;12.60;;;10.13;;
2039;SDS011;1025;42.686;23.350;2023-04-25T08:55:28;9.87;;;8.97;;
2039;SDS011;1025;42.686;23.350;2023-04-25T08:58:53;14.77;;;12.07;;
2039;SDS011;1025;42.686;23.350;2023-04-25T09:02:19;9.30;;;8.40;;
2039;SDS011;1025;42.686;23.350;2023-04-25T09:05:36;7.30;;;6.73;;
2039;SDS011;1025;42.686;23.350;2023-04-25T09:09:01;9.90;;;7.00;;
2039;SDS011;1025;42.686;23.350;2023-04-25T09:12:30;7.10;;;6.50;;
2039;SDS011;1025;42.686;23.350;2023-04-25T09:15:51;9.30;;;6.80;;
2039;SDS011;1025;42.686;23.350;2023-04-25T09:19:28;6.97;;;6.40;;
2039;SDS011;1025;42.686;23.350;2023-04-25T09:23:00;6.70;;;6.10;;
2039;SDS011;1025;42.686;23.350;2023-04-25T09:26:23;4.77;;;4.37;;
2039;SDS011;1025;42.686;23.350;2023-04-25T09:29:56;4.90;;;4.50;;
2039;SDS011;1025;42.686;23.350;2023-04-25T09:33:26;8.83;;;5.40;;
2039;SDS011;1025;42.686;23.350;2023-04-25T09:36:54;12.13;;;4.73;;
2039;SDS011;1025;42.686;23.350;2023-04-25T09:40:18;3.37;;;3.17;;
2039;SDS011;1025;42.686;23.350;2023-04-25T09:43:49;21.57;;;6.73;;
2039;SDS011;1025;42.686;23.350;2023-04-25T09:47:14;4.20;;;3.73;;
2039;SDS011;1025;42.686;23.350;2023-04-25T09:50:43;18.57;;;5.13;;
2039;SDS011;1025;42.686;23.350;2023-04-25T09:54:08;15.63;;;5.47;;
2039;SDS011;1025;42.686;23.350;2023-04-25T09:57:33;15.20;;;5.37;;
2039;SDS011;1025;42.686;23.350;2023-04-25T10:00:16;34.87;;;9.43;;
2039;SDS011;1025;42.686;23.350;2023-04-25T10:03:03;15.90;;;7.80;;
2039;SDS011;1025;42.686;23.350;2023-04-25T10:06:22;6.50;;;4.43;;
2039;SDS011;1025;42.686;23.350;2023-04-25T10:09:47;5.30;;;4.03;;
2039;SDS011;1025;42.686;23.350;2023-04-25T10:13:08;17.57;;;6.63;;
2039;SDS011;1025;42.686;23.350;2023-04-25T10:16:32;12.63;;;5.50;;
2039;SDS011;1025;42.686;23.350;2023-04-25T10:19:56;14.70;;;6.40;;
2039;SDS011;1025;42.686;23.350;2023-04-25T10:23:13;7.73;;;5.10;;
2039;SDS011;1025;42.686;23.350;2023-04-25T10:26:32;2.90;;;2.70;;
2039;SDS011;1025;42.686;23.350;2023-04-25T10:30:00;5.63;;;2.17;;
2039;SDS011;1025;42.686;23.350;2023-04-25T10:33:35;2.77;;;2.53;;
2039;SDS011;1025;42.686;23.350;2023-04-25T10:37:06;1.70;;;1.60;;
2039;SDS011;1025;42.686;23.350;2023-04-25T10:40:23;4.73;;;2.73;;
2039;SDS011;1025;42.686;23.350;2023-04-25T10:43:35;2.90;;;2.27;;
2039;SDS011;1025;42.686;23.350;2023-04-25T10:46:56;2.43;;;1.80;;
2039;SDS011;1025;42.686;23.350;2023-04-25T10:50:20;2.70;;;2.50;;
2039;SDS011;1025;42.686;23.350;2023-04-25T10:53:44;2.80;;;1.80;;
2039;SDS011;1025;42.686;23.350;2023-04-25T10:57:31;4.27;;;2.10;;
2039;SDS011;1025;42.686;23.350;2023-04-25T11:00:55;4.13;;;2.67;;
2039;SDS011;1025;42.686;23.350;2023-04-25T11:04:20;7.50;;;2.17;;
2039;SDS011;1025;42.686;23.350;2023-04-25T11:07:38;16.57;;;7.30;;
2039;SDS011;1025;42.686;23.350;2023-04-25T11:11:15;13.47;;;3.97;;
2039;SDS011;1025;42.686;23.350;2023-04-25T11:14:26;10.33;;;3.03;;
2039;SDS011;1025;42.686;23.350;2023-04-25T11:26:27;13.03;;;5.23;;
2039;SDS011;1025;42.686;23.350;2023-04-25T11:30:28;27.63;;;5.50;;
2039;SDS011;1025;42.686;23.350;2023-04-25T11:34:16;17.07;;;5.37;;
2039;SDS011;1025;42.686;23.350;2023-04-25T11:37:41;21.33;;;6.60;;
2039;SDS011;1025;42.686;23.350;2023-04-25T11:41:07;18.97;;;5.40;;
2039;SDS011;1025;42.686;23.350;2023-04-25T11:44:34;12.90;;;5.30;;
2039;SDS011;1025;42.686;23.350;2023-04-25T11:48:01;4.83;;;2.77;;
2039;SDS011;1025;42.686;23.350;2023-04-25T11:51:26;8.73;;;1.50;;
2039;SDS011;1025;42.686;23.350;2023-04-25T11:55:01;2.87;;;1.77;;
2039;SDS011;1025;42.686;23.350;2023-04-25T11:58:22;6.27;;;2.00;;
2039;SDS011;1025;42.686;23.350;2023-04-25T12:05:51;1.50;;;1.40;;
2039;SDS011;1025;42.686;23.350;2023-04-25T12:09:18;1.40;;;1.30;;
2039;SDS011;1025;42.686;23.350;2023-04-25T12:12:46;1.17;;;1.07;;
2039;SDS011;1025;42.686;23.350;2023-04-25T12:16:05;1.00;;;1.00;;
2039;SDS011;1025;42.686;23.350;2023-04-25T12:19:33;1.47;;;1.37;;
2039;SDS011;1025;42.686;23.350;2023-04-25T12:22:54;1.60;;;1.50;;
2039;SDS011;1025;42.686;23.350;2023-04-25T12:26:19;1.47;;;1.00;;
2039;SDS011;1025;42.686;23.350;2023-04-25T12:29:51;1.00;;;1.00;;
2039;SDS011;1025;42.686;23.350;2023-04-25T12:33:21;1.50;;;1.10;;
2039;SDS011;1025;42.686;23.350;2023-04-25T12:36:35;2.37;;;1.97;;
2039;SDS011;1025;42.686;23.350;2023-04-25T12:40:00;13.07;;;3.00;;
2039;SDS011;1025;42.686;23.350;2023-04-25T12:43:25;9.83;;;3.90;;
2039;SDS011;1025;42.686;23.350;2023-04-25T12:46:49;5.90;;;2.57;;
2039;SDS011;1025;42.686;23.350;2023-04-25T12:50:14;3.00;;;2.70;;
2039;SDS011;1025;42.686;23.350;2023-04-25T12:53:40;3.70;;;2.57;;
2039;SDS011;1025;42.686;23.350;2023-04-25T12:57:05;3.20;;;2.90;;
2039;SDS011;1025;42.686;23.350;2023-04-25T13:00:31;3.77;;;1.83;;
2039;SDS011;1025;42.686;23.350;2023-04-25T13:03:58;2.80;;;2.27;;
2039;SDS011;1025;42.686;23.350;2023-04-25T13:07:23;5.63;;;3.40;;
2039;SDS011;1025;42.686;23.350;2023-04-25T13:10:48;2.57;;;2.30;;
2039;SDS011;1025;42.686;23.350;2023-04-25T13:14:14;6.93;;;3.13;;
2039;SDS011;1025;42.686;23.350;2023-04-25T13:17:40;2.77;;;2.27;;
2039;SDS011;1025;42.686;23.350;2023-04-25T13:21:07;3.53;;;2.60;;
2039;SDS011;1025;42.686;23.350;2023-04-25T13:24:34;7.60;;;4.37;;
2039;SDS011;1025;42.686;23.350;2023-04-25T13:27:59;6.00;;;5.33;;
2039;SDS011;1025;42.686;23.350;2023-04-25T13:31:25;3.77;;;2.87;;
2039;SDS011;1025;42.686;23.350;2023-04-25T13:34:51;9.03;;;3.20;;
2039;SDS011;1025;42.686;23.350;2023-04-25T13:38:21;3.53;;;2.90;;
2039;SDS011;1025;42.686;23.350;2023-04-25T13:41:46;6.60;;;5.70;;
2039;SDS011;1025;42.686;23.350;2023-04-25T13:45:11;3.73;;;3.00;;
2039;SDS011;1025;42.686;23.350;2023-04-25T13:48:37;3.73;;;3.43;;
2039;SDS011;1025;42.686;23.350;2023-04-25T13:52:03;3.37;;;3.17;;
2039;SDS011;1025;42.686;23.350;2023-04-25T13:55:30;4.43;;;4.17;;
2039;SDS011;1025;42.686;23.350;2023-04-25T13:58:55;6.73;;;5.57;;
2039;SDS011;1025;42.686;23.350;2023-04-25T14:02:20;2.90;;;2.63;;
2039;SDS011;1025;42.686;23.350;2023-04-25T14:05:46;5.70;;;3.27;;
2039;SDS011;1025;42.686;23.350;2023-04-25T14:09:11;2.20;;;2.10;;
2039;SDS011;1025;42.686;23.350;2023-04-25T14:12:37;3.33;;;3.03;;
2039;SDS011;1025;42.686;23.350;2023-04-25T14:16:03;6.27;;;4.17;;
2039;SDS011;1025;42.686;23.350;2023-04-25T14:19:31;4.57;;;3.13;;
2039;SDS011;1025;42.686;23.350;2023-04-25T14:22:57;1.97;;;1.87;;
2039;SDS011;1025;42.686;23.350;2023-04-25T14:26:23;1.10;;;1.10;;
2039;SDS011;1025;42.686;23.350;2023-04-25T14:29:42;3.80;;;3.40;;
2039;SDS011;1025;42.686;23.350;2023-04-25T14:33:07;3.60;;;3.30;;
2039;SDS011;1025;42.686;23.350;2023-04-25T14:36:33;3.53;;;2.30;;
2039;SDS011;1025;42.686;23.350;2023-04-25T14:39:58;1.40;;;1.30;;
2039;SDS011;1025;42.686;23.350;2023-04-25T14:43:23;5.83;;;2.77;;
2039;SDS011;1025;42.686;23.350;2023-04-25T14:46:50;3.37;;;3.13;;
2039;SDS011;1025;42.686;23.350;2023-04-25T14:50:15;1.87;;;1.73;;
2039;SDS011;1025;42.686;23.350;2023-04-25T14:53:40;3.17;;;2.83;;
2039;SDS011;1025;42.686;23.350;2023-04-25T14:57:06;4.90;;;4.60;;
2039;SDS011;1025;42.686;23.350;2023-04-25T15:00:32;2.10;;;2.00;;
2039;SDS011;1025;42.686;23.350;2023-04-25T15:03:58;4.37;;;3.73;;
2039;SDS011;1025;42.686;23.350;2023-04-25T15:07:25;4.50;;;4.10;;
2039;SDS011;1025;42.686;23.350;2023-04-25T15:10:49;4.53;;;3.97;;
2039;SDS011;1025;42.686;23.350;2023-04-25T15:14:16;1.47;;;1.37;;
2039;SDS011;1025;42.686;23.350;2023-04-25T15:17:41;2.33;;;1.40;;
2039;SDS011;1025;42.686;23.350;2023-04-25T15:21:08;1.60;;;1.50;;
2039;SDS011;1025;42.686;23.350;2023-04-25T15:24:34;2.47;;;1.90;;
2039;SDS011;1025;42.686;23.350;2023-04-25T15:27:59;2.33;;;2.23;;
2039;SDS011;1025;42.686;23.350;2023-04-25T15:31:24;4.40;;;3.50;;
2039;SDS011;1025;42.686;23.350;2023-04-25T15:34:49;2.10;;;1.97;;
2039;SDS011;1025;42.686;23.350;2023-04-25T15:38:16;2.97;;;2.47;;
2039;SDS011;1025;42.686;23.350;2023-04-25T15:41:41;2.40;;;2.30;;
2039;SDS011;1025;42.686;23.350;2023-04-25T15:45:09;2.03;;;1.87;;
2039;SDS011;1025;42.686;23.350;2023-04-25T15:48:34;8.73;;;4.10;;
2039;SDS011;1025;42.686;23.350;2023-04-25T15:52:00;5.00;;;3.87;;
2039;SDS011;1025;42.686;23.350;2023-04-25T15:55:27;3.70;;;2.90;;
2039;SDS011;1025;42.686;23.350;2023-04-25T15:58:52;6.57;;;4.53;;
2039;SDS011;1025;42.686;23.350;2023-04-25T16:02:16;2.80;;;2.60;;
2039;SDS011;1025;42.686;23.350;2023-04-25T16:05:42;6.27;;;4.30;;
2039;SDS011;1025;42.686;23.350;2023-04-25T16:09:07;4.93;;;4.53;;
2039;SDS011;1025;42.686;23.350;2023-04-25T16:12:34;3.20;;;3.00;;
2039;SDS011;1025;42.686;23.350;2023-04-25T16:16:00;2.27;;;2.07;;
2039;SDS011;1025;42.686;23.350;2023-04-25T16:19:25;3.53;;;3.33;;
2039;SDS011;1025;42.686;23.350;2023-04-25T16:22:51;3.20;;;2.90;;
2039;SDS011;1025;42.686;23.350;2023-04-25T16:26:15;5.77;;;5.37;;
2039;SDS011;1025;42.686;23.350;2023-04-25T16:29:41;2.77;;;2.50;;
2039;SDS011;1025;42.686;23.350;2023-04-25T16:33:06;3.07;;;2.87;;
2039;SDS011;1025;42.686;23.350;2023-04-25T16:36:31;3.83;;;2.30;;
2039;SDS011;1025;42.686;23.350;2023-04-25T16:39:57;2.97;;;1.97;;
2039;SDS011;1025;42.686;23.350;2023-04-25T16:43:22;3.47;;;3.17;;
2039;SDS011;1025;42.686;23.350;2023-04-25T16:46:48;2.67;;;2.47;;
2039;SDS011;1025;42.686;23.350;2023-04-25T16:50:14;3.30;;;3.10;;
2039;SDS011;1025;42.686;23.350;2023-04-25T16:53:39;5.73;;;4.00;;
2039;SDS011;1025;42.686;23.350;2023-04-25T16:57:05;5.03;;;4.57;;
2039;SDS011;1025;42.686;23.350;2023-04-25T17:00:31;5.47;;;5.00;;
2039;SDS011;1025;42.686;23.350;2023-04-25T17:03:58;7.93;;;6.20;;
2039;SDS011;1025;42.686;23.350;2023-04-25T17:07:23;6.20;;;5.70;;
2039;SDS011;1025;42.686;23.350;2023-04-25T17:10:48;6.87;;;6.37;;
2039;SDS011;1025;42.686;23.350;2023-04-25T17:14:13;6.60;;;6.10;;
2039;SDS011;1025;42.686;23.350;2023-04-25T17:17:38;7.70;;;7.10;;
2039;SDS011;1025;42.686;23.350;2023-04-25T17:21:05;7.33;;;6.73;;
2039;SDS011;1025;42.686;23.350;2023-04-25T17:24:30;5.53;;;5.13;;
2039;SDS011;1025;42.686;23.350;2023-04-25T17:27:57;5.00;;;4.50;;
2039;SDS011;1025;42.686;23.350;2023-04-25T17:31:20;5.83;;;5.23;;
2039;SDS011;1025;42.686;23.350;2023-04-25T17:34:43;5.20;;;4.70;;
2039;SDS011;1025;42.686;23.350;2023-04-25T17:38:10;5.87;;;4.63;;
2039;SDS011;1025;42.686;23.350;2023-04-25T17:41:36;3.83;;;3.63;;
2039;SDS011;1025;42.686;23.350;2023-04-25T17:45:01;6.10;;;4.77;;
2039;SDS011;1025;42.686;23.350;2023-04-25T17:48:26;4.20;;;3.90;;
2039;SDS011;1025;42.686;23.350;2023-04-25T17:51:52;5.20;;;4.80;;
2039;SDS011;1025;42.686;23.350;2023-04-25T17:55:19;3.50;;;2.80;;
2039;SDS011;1025;42.686;23.350;2023-04-25T17:58:45;2.53;;;2.33;;
2039;SDS011;1025;42.686;23.350;2023-04-25T18:02:10;3.13;;;2.63;;
2039;SDS011;1025;42.686;23.350;2023-04-25T18:05:36;5.93;;;3.70;;
2039;SDS011;1025;42.686;23.350;2023-04-25T18:09:00;4.20;;;3.10;;
2039;SDS011;1025;42.686;23.350;2023-04-25T18:12:27;2.97;;;2.73;;
2039;SDS011;1025;42.686;23.350;2023-04-25T18:15:53;2.73;;;2.63;;
2039;SDS011;1025;42.686;23.350;2023-04-25T18:19:19;2.87;;;2.63;;
2039;SDS011;1025;42.686;23.350;2023-04-25T18:22:46;2.33;;;2.17;;
2039;SDS011;1025;42.686;23.350;2023-04-25T18:26:11;3.60;;;3.40;;
2039;SDS011;1025;42.686;23.350;2023-04-25T18:29:38;2.90;;;2.70;;
2039;SDS011;1025;42.686;23.350;2023-04-25T18:33:03;3.00;;;2.80;;
2039;SDS011;1025;42.686;23.350;2023-04-25T18:36:28;4.43;;;2.93;;
2039;SDS011;1025;42.686;23.350;2023-04-25T18:39:54;3.50;;;3.27;;
2039;SDS011;1025;42.686;23.350;2023-04-25T18:43:18;3.37;;;3.17;;
2039;SDS011;1025;42.686;23.350;2023-04-25T18:46:45;4.43;;;4.13;;
2039;SDS011;1025;42.686;23.350;2023-04-25T18:50:11;3.83;;;3.47;;
2039;SDS011;1025;42.686;23.350;2023-04-25T18:53:36;4.37;;;3.90;;
2039;SDS011;1025;42.686;23.350;2023-04-25T18:57:02;5.10;;;4.70;;
2039;SDS011;1025;42.686;23.350;2023-04-25T19:00:27;3.63;;;3.43;;
2039;SDS011;1025;42.686;23.350;2023-04-25T19:03:54;2.80;;;2.60;;
2039;SDS011;1025;42.686;23.350;2023-04-25T19:07:19;2.80;;;2.60;;
2039;SDS011;1025;42.686;23.350;2023-04-25T19:10:45;3.73;;;3.50;;
2039;SDS011;1025;42.686;23.350;2023-04-25T19:14:11;4.97;;;3.83;;
2039;SDS011;1025;42.686;23.350;2023-04-25T19:17:37;5.90;;;4.00;;
2039;SDS011;1025;42.686;23.350;2023-04-25T19:21:04;3.57;;;3.37;;
2039;SDS011;1025;42.686;23.350;2023-04-25T19:24:29;3.20;;;2.90;;
2039;SDS011;1025;42.686;23.350;2023-04-25T19:27:54;3.57;;;3.27;;
2039;SDS011;1025;42.686;23.350;2023-04-25T19:31:30;4.53;;;4.13;;
2039;SDS011;1025;42.686;23.350;2023-04-25T19:34:55;4.97;;;4.50;;
2039;SDS011;1025;42.686;23.350;2023-04-25T19:38:22;6.20;;;4.13;;
2039;SDS011;1025;42.686;23.350;2023-04-25T19:41:48;4.93;;;4.53;;
2039;SDS011;1025;42.686;23.350;2023-04-25T19:45:13;6.37;;;4.60;;
2039;SDS011;1025;42.686;23.350;2023-04-25T19:48:34;6.30;;;4.70;;
2039;SDS011;1025;42.686;23.350;2023-04-25T19:51:58;3.63;;;3.33;;
2039;SDS011;1025;42.686;23.350;2023-04-25T19:55:23;4.20;;;3.90;;
2039;SDS011;1025;42.686;23.350;2023-04-25T19:58:48;4.37;;;3.73;;
2039;SDS011;1025;42.686;23.350;2023-04-25T20:02:14;4.50;;;3.70;;
2039;SDS011;1025;42.686;23.350;2023-04-25T20:05:40;8.53;;;4.77;;
2039;SDS011;1025;42.686;23.350;2023-04-25T20:09:05;11.97;;;5.63;;
2039;SDS011;1025;42.686;23.350;2023-04-25T20:12:32;13.30;;;6.30;;
2039;SDS011;1025;42.686;23.350;2023-04-25T20:15:57;6.50;;;5.57;;
2039;SDS011;1025;42.686;23.350;2023-04-25T20:19:22;10.20;;;6.53;;
2039;SDS011;1025;42.686;23.350;2023-04-25T20:22:47;11.30;;;6.50;;
2039;SDS011;1025;42.686;23.350;2023-04-25T20:26:12;6.83;;;5.83;;
2039;SDS011;1025;42.686;23.350;2023-04-25T20:29:38;10.23;;;5.43;;
2039;SDS011;1025;42.686;23.350;2023-04-25T20:33:04;11.90;;;5.47;;
2039;SDS011;1025;42.686;23.350;2023-04-25T20:36:29;13.53;;;5.53;;
2039;SDS011;1025;42.686;23.350;2023-04-25T20:39:56;17.50;;;4.87;;
2039;SDS011;1025;42.686;23.350;2023-04-25T20:43:21;10.50;;;5.03;;
2039;SDS011;1025;42.686;23.350;2023-04-25T20:46:49;11.23;;;6.20;;
2039;SDS011;1025;42.686;23.350;2023-04-25T20:50:14;11.47;;;3.80;;